sensor_id;sensor_type;location;lat;lon;timestamp;P1;durP1;ratioP1;P2;durP2;ratioP2
70866;SDS011;58487;53.474;49.470;2023-09-30T00:01:01;5.10;;;1.50;;
70866;SDS011;58487;53.474;49.470;2023-09-30T00:03:28;4.93;;;1.67;;
70866;SDS011;58487;53.474;49.470;2023-09-30T00:05:54;4.47;;;1.70;;
70866;SDS011;58487;53.474;49.470;2023-09-30T00:08:20;5.60;;;1.58;;
70866;SDS011;58487;53.474;49.470;2023-09-30T00:10:46;4.10;;;1.60;;
70866;SDS011;58487;53.474;49.470;2023-09-30T00:13:12;4.05;;;1.50;;
70866;SDS011;58487;53.474;49.470;2023-09-30T00:15:38;3.92;;;1.48;;
70866;SDS011;58487;53.474;49.470;2023-09-30T00:18:06;3.83;;;1.57;;
70866;SDS011;58487;53.474;49.470;2023-09-30T00:20:32;7.78;;;1.77;;
70866;SDS011;58487;53.474;49.470;2023-09-30T00:22:58;4.00;;;1.80;;
70866;SDS011;58487;53.474;49.470;2023-09-30T00:25:24;4.75;;;1.70;;
70866;SDS011;58487;53.474;49.470;2023-09-30T00:27:50;6.27;;;1.60;;
70866;SDS011;58487;53.474;49.470;2023-09-30T00:30:16;5.20;;;1.50;;
70866;SDS011;58487;53.474;49.470;2023-09-30T00:32:42;4.65;;;1.80;;
70866;SDS011;58487;53.474;49.470;2023-09-30T00:35:08;5.15;;;2.10;;
70866;SDS011;58487;53.474;49.470;2023-09-30T00:37:39;5.20;;;1.87;;
70866;SDS011;58487;53.474;49.470;2023-09-30T00:40:07;5.25;;;1.70;;
70866;SDS011;58487;53.474;49.470;2023-09-30T00:42:37;7.47;;;2.20;;
70866;SDS011;58487;53.474;49.470;2023-09-30T00:45:04;5.13;;;1.95;;
70866;SDS011;58487;53.474;49.470;2023-09-30T00:47:31;5.07;;;2.03;;
70866;SDS011;58487;53.474;49.470;2023-09-30T00:49:58;5.57;;;2.20;;
70866;SDS011;58487;53.474;49.470;2023-09-30T00:52:25;6.57;;;2.50;;
70866;SDS011;58487;53.474;49.470;2023-09-30T00:54:52;6.43;;;2.50;;
70866;SDS011;58487;53.474;49.470;2023-09-30T00:57:20;7.38;;;2.70;;
70866;SDS011;58487;53.474;49.470;2023-09-30T00:59:47;5.88;;;2.45;;
70866;SDS011;58487;53.474;49.470;2023-09-30T01:02:15;5.83;;;2.20;;
70866;SDS011;58487;53.474;49.470;2023-09-30T01:04:42;7.22;;;2.63;;
70866;SDS011;58487;53.474;49.470;2023-09-30T01:07:09;6.38;;;2.60;;
70866;SDS011;58487;53.474;49.470;2023-09-30T01:09:35;5.95;;;2.10;;
70866;SDS011;58487;53.474;49.470;2023-09-30T01:12:02;5.97;;;2.45;;
70866;SDS011;58487;53.474;49.470;2023-09-30T01:14:30;8.40;;;2.60;;
70866;SDS011;58487;53.474;49.470;2023-09-30T01:16:57;7.32;;;3.05;;
70866;SDS011;58487;53.474;49.470;2023-09-30T01:19:27;7.55;;;3.13;;
70866;SDS011;58487;53.474;49.470;2023-09-30T01:21:57;7.72;;;3.10;;
70866;SDS011;58487;53.474;49.470;2023-09-30T01:24:29;7.72;;;2.92;;
70866;SDS011;58487;53.474;49.470;2023-09-30T01:26:56;10.03;;;2.83;;
70866;SDS011;58487;53.474;49.470;2023-09-30T01:29:23;8.38;;;2.78;;
70866;SDS011;58487;53.474;49.470;2023-09-30T01:31:52;8.35;;;3.10;;
70866;SDS011;58487;53.474;49.470;2023-09-30T01:34:19;8.70;;;3.03;;
70866;SDS011;58487;53.474;49.470;2023-09-30T01:36:45;8.30;;;3.53;;
70866;SDS011;58487;53.474;49.470;2023-09-30T01:39:12;7.87;;;3.03;;
70866;SDS011;58487;53.474;49.470;2023-09-30T01:41:39;6.28;;;2.50;;
70866;SDS011;58487;53.474;49.470;2023-09-30T01:44:06;8.32;;;3.28;;
70866;SDS011;58487;53.474;49.470;2023-09-30T01:46:35;8.63;;;3.30;;
70866;SDS011;58487;53.474;49.470;2023-09-30T01:49:04;6.90;;;2.90;;
70866;SDS011;58487;53.474;49.470;2023-09-30T01:51:30;9.30;;;3.10;;
70866;SDS011;58487;53.474;49.470;2023-09-30T01:53:57;9.27;;;3.40;;
70866;SDS011;58487;53.474;49.470;2023-09-30T01:56:23;12.00;;;3.97;;
70866;SDS011;58487;53.474;49.470;2023-09-30T01:58:49;12.07;;;4.18;;
70866;SDS011;58487;53.474;49.470;2023-09-30T02:01:15;13.43;;;4.30;;
70866;SDS011;58487;53.474;49.470;2023-09-30T02:03:41;10.17;;;4.13;;
70866;SDS011;58487;53.474;49.470;2023-09-30T02:06:08;12.57;;;4.20;;
70866;SDS011;58487;53.474;49.470;2023-09-30T02:08:34;12.60;;;4.75;;
70866;SDS011;58487;53.474;49.470;2023-09-30T02:11:03;10.25;;;3.95;;
70866;SDS011;58487;53.474;49.470;2023-09-30T02:13:32;10.93;;;3.88;;
70866;SDS011;58487;53.474;49.470;2023-09-30T02:16:00;11.33;;;3.67;;
70866;SDS011;58487;53.474;49.470;2023-09-30T02:18:27;9.27;;;3.97;;
70866;SDS011;58487;53.474;49.470;2023-09-30T02:20:53;13.77;;;4.65;;
70866;SDS011;58487;53.474;49.470;2023-09-30T02:23:19;11.95;;;4.45;;
70866;SDS011;58487;53.474;49.470;2023-09-30T02:25:46;8.25;;;4.18;;
70866;SDS011;58487;53.474;49.470;2023-09-30T02:28:12;10.57;;;4.50;;
70866;SDS011;58487;53.474;49.470;2023-09-30T02:30:39;12.50;;;4.50;;
70866;SDS011;58487;53.474;49.470;2023-09-30T02:33:05;13.02;;;5.35;;
70866;SDS011;58487;53.474;49.470;2023-09-30T02:35:33;15.18;;;5.38;;
70866;SDS011;58487;53.474;49.470;2023-09-30T02:37:59;13.65;;;5.15;;
70866;SDS011;58487;53.474;49.470;2023-09-30T02:40:26;14.07;;;5.40;;
70866;SDS011;58487;53.474;49.470;2023-09-30T02:42:52;16.27;;;5.68;;
70866;SDS011;58487;53.474;49.470;2023-09-30T02:45:19;12.95;;;5.63;;
70866;SDS011;58487;53.474;49.470;2023-09-30T02:47:45;16.85;;;5.43;;
70866;SDS011;58487;53.474;49.470;2023-09-30T02:50:12;14.27;;;5.13;;
70866;SDS011;58487;53.474;49.470;2023-09-30T02:52:39;13.17;;;4.90;;
70866;SDS011;58487;53.474;49.470;2023-09-30T02:55:12;10.45;;;4.45;;
70866;SDS011;58487;53.474;49.470;2023-09-30T02:57:38;15.45;;;4.80;;
70866;SDS011;58487;53.474;49.470;2023-09-30T03:00:05;14.60;;;4.40;;
70866;SDS011;58487;53.474;49.470;2023-09-30T03:02:52;15.85;;;5.20;;
70866;SDS011;58487;53.474;49.470;2023-09-30T03:05:19;13.53;;;4.40;;
70866;SDS011;58487;53.474;49.470;2023-09-30T03:07:45;12.88;;;4.82;;
70866;SDS011;58487;53.474;49.470;2023-09-30T03:10:12;12.68;;;4.32;;
70866;SDS011;58487;53.474;49.470;2023-09-30T03:12:48;16.05;;;5.47;;
70866;SDS011;58487;53.474;49.470;2023-09-30T03:15:16;11.30;;;4.63;;
70866;SDS011;58487;53.474;49.470;2023-09-30T03:17:42;11.63;;;4.70;;
70866;SDS011;58487;53.474;49.470;2023-09-30T03:20:08;11.88;;;4.47;;
70866;SDS011;58487;53.474;49.470;2023-09-30T03:22:43;10.55;;;4.82;;
70866;SDS011;58487;53.474;49.470;2023-09-30T03:25:12;14.65;;;4.90;;
70866;SDS011;58487;53.474;49.470;2023-09-30T03:27:43;12.98;;;4.78;;
70866;SDS011;58487;53.474;49.470;2023-09-30T03:30:15;12.87;;;5.80;;
70866;SDS011;58487;53.474;49.470;2023-09-30T03:32:43;17.15;;;5.40;;
70866;SDS011;58487;53.474;49.470;2023-09-30T03:35:10;13.35;;;4.68;;
70866;SDS011;58487;53.474;49.470;2023-09-30T03:37:36;12.07;;;5.30;;
70866;SDS011;58487;53.474;49.470;2023-09-30T03:40:03;13.60;;;5.88;;
70866;SDS011;58487;53.474;49.470;2023-09-30T03:42:37;13.57;;;5.40;;
70866;SDS011;58487;53.474;49.470;2023-09-30T03:45:05;12.57;;;5.18;;
70866;SDS011;58487;53.474;49.470;2023-09-30T03:47:34;16.25;;;6.75;;
70866;SDS011;58487;53.474;49.470;2023-09-30T03:50:01;16.58;;;6.20;;
70866;SDS011;58487;53.474;49.470;2023-09-30T03:52:29;19.20;;;6.50;;
70866;SDS011;58487;53.474;49.470;2023-09-30T03:54:59;15.93;;;6.20;;
70866;SDS011;58487;53.474;49.470;2023-09-30T03:57:25;25.23;;;7.53;;
70866;SDS011;58487;53.474;49.470;2023-09-30T03:59:52;20.73;;;7.20;;
70866;SDS011;58487;53.474;49.470;2023-09-30T04:02:18;17.80;;;6.30;;
70866;SDS011;58487;53.474;49.470;2023-09-30T04:04:44;17.65;;;5.55;;
70866;SDS011;58487;53.474;49.470;2023-09-30T04:07:11;11.80;;;4.00;;
70866;SDS011;58487;53.474;49.470;2023-09-30T04:09:38;12.10;;;4.47;;
70866;SDS011;58487;53.474;49.470;2023-09-30T04:12:05;10.65;;;4.25;;
70866;SDS011;58487;53.474;49.470;2023-09-30T04:14:31;10.13;;;3.97;;
70866;SDS011;58487;53.474;49.470;2023-09-30T04:16:58;9.93;;;3.60;;
70866;SDS011;58487;53.474;49.470;2023-09-30T04:19:23;7.30;;;3.33;;
70866;SDS011;58487;53.474;49.470;2023-09-30T04:21:49;8.80;;;3.22;;
70866;SDS011;58487;53.474;49.470;2023-09-30T04:24:15;10.65;;;3.55;;
70866;SDS011;58487;53.474;49.470;2023-09-30T04:26:44;8.05;;;3.40;;
70866;SDS011;58487;53.474;49.470;2023-09-30T04:29:10;9.63;;;3.47;;
70866;SDS011;58487;53.474;49.470;2023-09-30T04:31:37;9.38;;;3.53;;
70866;SDS011;58487;53.474;49.470;2023-09-30T04:34:07;8.57;;;3.30;;
70866;SDS011;58487;53.474;49.470;2023-09-30T04:36:34;12.80;;;3.60;;
70866;SDS011;58487;53.474;49.470;2023-09-30T04:39:00;10.50;;;3.90;;
70866;SDS011;58487;53.474;49.470;2023-09-30T04:41:27;10.60;;;3.43;;
70866;SDS011;58487;53.474;49.470;2023-09-30T04:43:53;8.38;;;3.78;;
70866;SDS011;58487;53.474;49.470;2023-09-30T04:46:22;10.43;;;3.50;;
70866;SDS011;58487;53.474;49.470;2023-09-30T04:48:49;10.25;;;3.85;;
70866;SDS011;58487;53.474;49.470;2023-09-30T04:51:17;8.68;;;3.67;;
70866;SDS011;58487;53.474;49.470;2023-09-30T04:53:44;10.03;;;3.50;;
70866;SDS011;58487;53.474;49.470;2023-09-30T04:56:12;12.18;;;3.50;;
70866;SDS011;58487;53.474;49.470;2023-09-30T04:58:38;8.85;;;3.00;;
70866;SDS011;58487;53.474;49.470;2023-09-30T05:01:04;8.73;;;2.92;;
70866;SDS011;58487;53.474;49.470;2023-09-30T05:03:34;6.90;;;3.38;;
70866;SDS011;58487;53.474;49.470;2023-09-30T05:06:00;5.17;;;2.50;;
70866;SDS011;58487;53.474;49.470;2023-09-30T05:08:28;9.70;;;4.05;;
70866;SDS011;58487;53.474;49.470;2023-09-30T05:10:55;5.22;;;2.53;;
70866;SDS011;58487;53.474;49.470;2023-09-30T05:13:21;5.85;;;2.28;;
70866;SDS011;58487;53.474;49.470;2023-09-30T05:15:49;6.95;;;2.60;;
70866;SDS011;58487;53.474;49.470;2023-09-30T05:18:16;5.50;;;2.43;;
70866;SDS011;58487;53.474;49.470;2023-09-30T05:20:43;6.47;;;2.65;;
70866;SDS011;58487;53.474;49.470;2023-09-30T05:23:09;5.60;;;2.50;;
70866;SDS011;58487;53.474;49.470;2023-09-30T05:25:38;5.47;;;2.50;;
70866;SDS011;58487;53.474;49.470;2023-09-30T05:28:05;6.88;;;2.50;;
70866;SDS011;58487;53.474;49.470;2023-09-30T05:30:32;9.87;;;4.43;;
70866;SDS011;58487;53.474;49.470;2023-09-30T05:33:02;7.18;;;2.40;;
70866;SDS011;58487;53.474;49.470;2023-09-30T05:35:29;5.75;;;2.38;;
70866;SDS011;58487;53.474;49.470;2023-09-30T05:37:57;6.85;;;2.78;;
70866;SDS011;58487;53.474;49.470;2023-09-30T05:40:23;6.20;;;2.47;;
70866;SDS011;58487;53.474;49.470;2023-09-30T05:42:56;5.90;;;2.53;;
70866;SDS011;58487;53.474;49.470;2023-09-30T05:45:23;5.72;;;2.40;;
70866;SDS011;58487;53.474;49.470;2023-09-30T05:47:51;6.15;;;2.40;;
70866;SDS011;58487;53.474;49.470;2023-09-30T05:50:19;14.68;;;4.00;;
70866;SDS011;58487;53.474;49.470;2023-09-30T05:52:50;23.00;;;7.45;;
70866;SDS011;58487;53.474;49.470;2023-09-30T05:55:17;19.17;;;7.30;;
70866;SDS011;58487;53.474;49.470;2023-09-30T05:57:50;17.80;;;6.70;;
70866;SDS011;58487;53.474;49.470;2023-09-30T06:00:18;13.88;;;5.60;;
70866;SDS011;58487;53.474;49.470;2023-09-30T06:02:54;15.82;;;6.10;;
70866;SDS011;58487;53.474;49.470;2023-09-30T06:05:21;20.25;;;6.88;;
70866;SDS011;58487;53.474;49.470;2023-09-30T06:07:56;16.33;;;6.73;;
70866;SDS011;58487;53.474;49.470;2023-09-30T06:10:22;19.50;;;6.18;;
70866;SDS011;58487;53.474;49.470;2023-09-30T06:12:50;15.40;;;5.70;;
70866;SDS011;58487;53.474;49.470;2023-09-30T06:15:24;16.38;;;5.95;;
70866;SDS011;58487;53.474;49.470;2023-09-30T06:17:57;16.13;;;6.10;;
70866;SDS011;58487;53.474;49.470;2023-09-30T06:20:25;16.33;;;6.73;;
70866;SDS011;58487;53.474;49.470;2023-09-30T06:22:52;19.38;;;7.20;;
70866;SDS011;58487;53.474;49.470;2023-09-30T06:25:21;14.77;;;6.22;;
70866;SDS011;58487;53.474;49.470;2023-09-30T06:27:49;13.40;;;5.68;;
70866;SDS011;58487;53.474;49.470;2023-09-30T06:30:16;17.67;;;5.82;;
70866;SDS011;58487;53.474;49.470;2023-09-30T06:32:45;13.77;;;6.00;;
70866;SDS011;58487;53.474;49.470;2023-09-30T06:35:11;13.27;;;6.10;;
70866;SDS011;58487;53.474;49.470;2023-09-30T06:37:37;16.48;;;6.45;;
70866;SDS011;58487;53.474;49.470;2023-09-30T06:40:05;19.83;;;6.25;;
70866;SDS011;58487;53.474;49.470;2023-09-30T06:42:35;13.80;;;6.10;;
70866;SDS011;58487;53.474;49.470;2023-09-30T06:45:02;13.87;;;5.67;;
70866;SDS011;58487;53.474;49.470;2023-09-30T06:47:35;14.13;;;4.90;;
70866;SDS011;58487;53.474;49.470;2023-09-30T06:50:04;11.13;;;4.30;;
70866;SDS011;58487;53.474;49.470;2023-09-30T06:52:36;11.73;;;4.00;;
70866;SDS011;58487;53.474;49.470;2023-09-30T06:55:04;19.90;;;5.45;;
70866;SDS011;58487;53.474;49.470;2023-09-30T06:57:34;10.17;;;4.20;;
70866;SDS011;58487;53.474;49.470;2023-09-30T07:00:05;10.15;;;4.03;;
70866;SDS011;58487;53.474;49.470;2023-09-30T07:02:35;12.10;;;4.07;;
70866;SDS011;58487;53.474;49.470;2023-09-30T07:05:05;12.43;;;3.90;;
70866;SDS011;58487;53.474;49.470;2023-09-30T07:07:38;12.48;;;4.05;;
70866;SDS011;58487;53.474;49.470;2023-09-30T07:10:05;9.57;;;3.80;;
70866;SDS011;58487;53.474;49.470;2023-09-30T07:12:32;10.05;;;3.72;;
70866;SDS011;58487;53.474;49.470;2023-09-30T07:15:01;8.38;;;3.13;;
70866;SDS011;58487;53.474;49.470;2023-09-30T07:17:29;10.73;;;3.50;;
70866;SDS011;58487;53.474;49.470;2023-09-30T07:19:56;11.40;;;4.22;;
70866;SDS011;58487;53.474;49.470;2023-09-30T07:22:22;8.97;;;3.67;;
70866;SDS011;58487;53.474;49.470;2023-09-30T07:24:48;9.48;;;3.60;;
70866;SDS011;58487;53.474;49.470;2023-09-30T07:27:14;8.93;;;2.53;;
70866;SDS011;58487;53.474;49.470;2023-09-30T07:29:41;8.68;;;3.05;;
70866;SDS011;58487;53.474;49.470;2023-09-30T07:32:09;8.48;;;3.20;;
70866;SDS011;58487;53.474;49.470;2023-09-30T07:34:35;8.50;;;3.13;;
70866;SDS011;58487;53.474;49.470;2023-09-30T07:37:01;16.73;;;3.88;;
70866;SDS011;58487;53.474;49.470;2023-09-30T07:39:28;16.70;;;4.55;;
70866;SDS011;58487;53.474;49.470;2023-09-30T07:41:55;8.00;;;3.30;;
70866;SDS011;58487;53.474;49.470;2023-09-30T07:44:21;9.23;;;3.38;;
70866;SDS011;58487;53.474;49.470;2023-09-30T07:46:48;7.20;;;3.07;;
70866;SDS011;58487;53.474;49.470;2023-09-30T07:49:14;6.93;;;3.20;;
70866;SDS011;58487;53.474;49.470;2023-09-30T07:51:44;11.52;;;2.97;;
70866;SDS011;58487;53.474;49.470;2023-09-30T07:54:11;8.27;;;3.20;;
70866;SDS011;58487;53.474;49.470;2023-09-30T07:56:38;6.13;;;2.60;;
70866;SDS011;58487;53.474;49.470;2023-09-30T07:59:04;6.77;;;2.00;;
70866;SDS011;58487;53.474;49.470;2023-09-30T08:01:31;6.10;;;2.38;;
70866;SDS011;58487;53.474;49.470;2023-09-30T08:03:57;6.40;;;2.30;;
70866;SDS011;58487;53.474;49.470;2023-09-30T08:06:23;8.07;;;2.00;;
70866;SDS011;58487;53.474;49.470;2023-09-30T08:08:50;4.85;;;2.03;;
70866;SDS011;58487;53.474;49.470;2023-09-30T08:11:17;5.40;;;1.67;;
70866;SDS011;58487;53.474;49.470;2023-09-30T08:13:46;6.88;;;2.28;;
70866;SDS011;58487;53.474;49.470;2023-09-30T08:16:13;6.55;;;2.50;;
70866;SDS011;58487;53.474;49.470;2023-09-30T08:18:39;8.23;;;3.05;;
70866;SDS011;58487;53.474;49.470;2023-09-30T08:21:08;7.30;;;2.63;;
70866;SDS011;58487;53.474;49.470;2023-09-30T08:23:36;7.70;;;2.30;;
70866;SDS011;58487;53.474;49.470;2023-09-30T08:26:05;4.90;;;1.92;;
70866;SDS011;58487;53.474;49.470;2023-09-30T08:28:32;8.13;;;2.47;;
70866;SDS011;58487;53.474;49.470;2023-09-30T08:31:02;6.40;;;2.10;;
70866;SDS011;58487;53.474;49.470;2023-09-30T08:33:28;6.10;;;2.30;;
70866;SDS011;58487;53.474;49.470;2023-09-30T08:35:56;6.83;;;2.20;;
70866;SDS011;58487;53.474;49.470;2023-09-30T08:38:37;8.20;;;2.42;;
70866;SDS011;58487;53.474;49.470;2023-09-30T08:41:04;4.75;;;1.50;;
70866;SDS011;58487;53.474;49.470;2023-09-30T08:43:31;3.13;;;1.10;;
70866;SDS011;58487;53.474;49.470;2023-09-30T08:46:09;4.13;;;1.48;;
70866;SDS011;58487;53.474;49.470;2023-09-30T08:48:35;3.20;;;1.23;;
70866;SDS011;58487;53.474;49.470;2023-09-30T08:51:02;6.68;;;1.80;;
70866;SDS011;58487;53.474;49.470;2023-09-30T08:53:29;5.03;;;1.73;;
70866;SDS011;58487;53.474;49.470;2023-09-30T08:55:56;5.30;;;1.83;;
70866;SDS011;58487;53.474;49.470;2023-09-30T08:58:26;5.47;;;1.95;;
70866;SDS011;58487;53.474;49.470;2023-09-30T09:00:53;4.67;;;1.67;;
70866;SDS011;58487;53.474;49.470;2023-09-30T09:03:19;3.30;;;1.30;;
70866;SDS011;58487;53.474;49.470;2023-09-30T09:05:46;3.95;;;1.35;;
70866;SDS011;58487;53.474;49.470;2023-09-30T09:08:20;5.65;;;1.50;;
70866;SDS011;58487;53.474;49.470;2023-09-30T09:10:56;3.50;;;1.30;;
70866;SDS011;58487;53.474;49.470;2023-09-30T09:13:24;4.43;;;1.43;;
70866;SDS011;58487;53.474;49.470;2023-09-30T09:16:12;3.28;;;1.13;;
70866;SDS011;58487;53.474;49.470;2023-09-30T09:18:38;3.78;;;1.27;;
70866;SDS011;58487;53.474;49.470;2023-09-30T09:21:10;4.15;;;1.67;;
70866;SDS011;58487;53.474;49.470;2023-09-30T09:23:39;3.65;;;1.60;;
70866;SDS011;58487;53.474;49.470;2023-09-30T09:26:24;4.53;;;1.50;;
70866;SDS011;58487;53.474;49.470;2023-09-30T09:28:59;8.93;;;2.10;;
70866;SDS011;58487;53.474;49.470;2023-09-30T09:31:27;5.68;;;1.80;;
70866;SDS011;58487;53.474;49.470;2023-09-30T09:33:55;4.18;;;1.60;;
70866;SDS011;58487;53.474;49.470;2023-09-30T09:36:22;5.30;;;1.77;;
70866;SDS011;58487;53.474;49.470;2023-09-30T09:39:07;3.67;;;1.40;;
70866;SDS011;58487;53.474;49.470;2023-09-30T09:41:41;4.18;;;1.42;;
70866;SDS011;58487;53.474;49.470;2023-09-30T09:44:21;5.03;;;1.92;;
70866;SDS011;58487;53.474;49.470;2023-09-30T09:46:49;11.75;;;2.10;;
70866;SDS011;58487;53.474;49.470;2023-09-30T09:49:16;5.18;;;1.80;;
70866;SDS011;58487;53.474;49.470;2023-09-30T09:51:43;4.43;;;1.50;;
70866;SDS011;58487;53.474;49.470;2023-09-30T09:54:11;4.45;;;1.80;;
70866;SDS011;58487;53.474;49.470;2023-09-30T09:56:39;7.05;;;2.40;;
70866;SDS011;58487;53.474;49.470;2023-09-30T09:59:05;6.18;;;2.42;;
70866;SDS011;58487;53.474;49.470;2023-09-30T10:01:34;6.22;;;2.72;;
70866;SDS011;58487;53.474;49.470;2023-09-30T10:04:01;6.07;;;2.20;;
70866;SDS011;58487;53.474;49.470;2023-09-30T10:06:27;6.53;;;2.92;;
70866;SDS011;58487;53.474;49.470;2023-09-30T10:08:54;8.15;;;4.43;;
70866;SDS011;58487;53.474;49.470;2023-09-30T10:11:22;4.07;;;1.65;;
70866;SDS011;58487;53.474;49.470;2023-09-30T10:21:38;3.53;;;1.63;;
70866;SDS011;58487;53.474;49.470;2023-09-30T10:29:48;9.03;;;4.00;;
70866;SDS011;58487;53.474;49.470;2023-09-30T10:32:18;5.40;;;2.13;;
70866;SDS011;58487;53.474;49.470;2023-09-30T10:34:48;4.22;;;1.85;;
70866;SDS011;58487;53.474;49.470;2023-09-30T10:37:20;5.50;;;1.60;;
70866;SDS011;58487;53.474;49.470;2023-09-30T10:39:57;4.00;;;1.70;;
70866;SDS011;58487;53.474;49.470;2023-09-30T10:50:56;6.22;;;2.42;;
70866;SDS011;58487;53.474;49.470;2023-09-30T10:53:25;5.75;;;2.50;;
70866;SDS011;58487;53.474;49.470;2023-09-30T10:55:56;7.27;;;2.43;;
70866;SDS011;58487;53.474;49.470;2023-09-30T10:58:46;3.53;;;1.70;;
70866;SDS011;58487;53.474;49.470;2023-09-30T11:01:20;7.18;;;1.42;;
70866;SDS011;58487;53.474;49.470;2023-09-30T11:03:47;4.85;;;2.17;;
70866;SDS011;58487;53.474;49.470;2023-09-30T11:06:17;6.18;;;2.60;;
70866;SDS011;58487;53.474;49.470;2023-09-30T11:11:19;6.35;;;1.83;;
70866;SDS011;58487;53.474;49.470;2023-09-30T11:13:57;7.28;;;2.20;;
70866;SDS011;58487;53.474;49.470;2023-09-30T11:16:23;6.65;;;2.45;;
70866;SDS011;58487;53.474;49.470;2023-09-30T11:18:53;9.07;;;2.35;;
70866;SDS011;58487;53.474;49.470;2023-09-30T11:21:22;4.80;;;2.10;;
70866;SDS011;58487;53.474;49.470;2023-09-30T11:23:48;4.60;;;1.92;;
70866;SDS011;58487;53.474;49.470;2023-09-30T11:26:14;5.97;;;2.17;;
70866;SDS011;58487;53.474;49.470;2023-09-30T11:28:41;4.20;;;1.75;;
70866;SDS011;58487;53.474;49.470;2023-09-30T11:31:10;6.00;;;2.25;;
70866;SDS011;58487;53.474;49.470;2023-09-30T11:33:50;7.33;;;2.60;;
70866;SDS011;58487;53.474;49.470;2023-09-30T11:36:21;6.40;;;2.65;;
70866;SDS011;58487;53.474;49.470;2023-09-30T11:38:47;8.13;;;2.70;;
70866;SDS011;58487;53.474;49.470;2023-09-30T11:41:15;5.05;;;2.30;;
70866;SDS011;58487;53.474;49.470;2023-09-30T11:44:03;5.00;;;2.10;;
70866;SDS011;58487;53.474;49.470;2023-09-30T11:46:49;7.90;;;2.40;;
70866;SDS011;58487;53.474;49.470;2023-09-30T11:52:25;6.43;;;2.17;;
70866;SDS011;58487;53.474;49.470;2023-09-30T11:54:55;5.22;;;1.77;;
70866;SDS011;58487;53.474;49.470;2023-09-30T11:57:22;5.38;;;2.22;;
70866;SDS011;58487;53.474;49.470;2023-09-30T11:59:51;4.80;;;2.00;;
70866;SDS011;58487;53.474;49.470;2023-09-30T12:02:18;4.93;;;1.90;;
70866;SDS011;58487;53.474;49.470;2023-09-30T12:04:44;5.13;;;2.20;;
70866;SDS011;58487;53.474;49.470;2023-09-30T12:07:15;5.82;;;1.88;;
70866;SDS011;58487;53.474;49.470;2023-09-30T12:09:41;6.15;;;2.22;;
70866;SDS011;58487;53.474;49.470;2023-09-30T12:12:08;5.17;;;2.13;;
70866;SDS011;58487;53.474;49.470;2023-09-30T12:14:35;7.63;;;2.33;;
70866;SDS011;58487;53.474;49.470;2023-09-30T12:17:01;6.13;;;2.33;;
70866;SDS011;58487;53.474;49.470;2023-09-30T12:19:27;5.55;;;1.88;;
70866;SDS011;58487;53.474;49.470;2023-09-30T12:21:55;7.20;;;2.30;;
70866;SDS011;58487;53.474;49.470;2023-09-30T12:24:21;5.80;;;1.90;;
70866;SDS011;58487;53.474;49.470;2023-09-30T12:26:50;5.15;;;2.08;;
70866;SDS011;58487;53.474;49.470;2023-09-30T12:29:18;5.88;;;2.25;;
70866;SDS011;58487;53.474;49.470;2023-09-30T12:31:45;5.85;;;2.20;;
70866;SDS011;58487;53.474;49.470;2023-09-30T12:34:12;7.30;;;2.72;;
70866;SDS011;58487;53.474;49.470;2023-09-30T12:36:40;6.57;;;1.93;;
70866;SDS011;58487;53.474;49.470;2023-09-30T12:39:07;4.93;;;2.13;;
70866;SDS011;58487;53.474;49.470;2023-09-30T12:41:37;6.93;;;2.10;;
70866;SDS011;58487;53.474;49.470;2023-09-30T12:44:08;7.20;;;2.35;;
70866;SDS011;58487;53.474;49.470;2023-09-30T12:46:39;4.88;;;2.00;;
70866;SDS011;58487;53.474;49.470;2023-09-30T12:49:08;6.70;;;3.63;;
70866;SDS011;58487;53.474;49.470;2023-09-30T12:51:34;4.45;;;1.88;;
70866;SDS011;58487;53.474;49.470;2023-09-30T12:54:02;6.20;;;2.72;;
70866;SDS011;58487;53.474;49.470;2023-09-30T12:56:28;6.55;;;2.47;;
70866;SDS011;58487;53.474;49.470;2023-09-30T12:58:55;5.50;;;2.22;;
70866;SDS011;58487;53.474;49.470;2023-09-30T13:01:22;6.53;;;3.00;;
70866;SDS011;58487;53.474;49.470;2023-09-30T13:03:49;4.90;;;2.20;;
70866;SDS011;58487;53.474;49.470;2023-09-30T13:06:17;6.25;;;2.53;;
70866;SDS011;58487;53.474;49.470;2023-09-30T13:08:43;6.18;;;2.80;;
70866;SDS011;58487;53.474;49.470;2023-09-30T13:11:09;6.30;;;2.65;;
70866;SDS011;58487;53.474;49.470;2023-09-30T13:13:37;7.93;;;2.53;;
70866;SDS011;58487;53.474;49.470;2023-09-30T13:16:03;5.93;;;2.42;;
70866;SDS011;58487;53.474;49.470;2023-09-30T13:18:35;8.88;;;4.13;;
70866;SDS011;58487;53.474;49.470;2023-09-30T13:21:02;7.80;;;2.78;;
70866;SDS011;58487;53.474;49.470;2023-09-30T13:23:31;6.93;;;2.67;;
70866;SDS011;58487;53.474;49.470;2023-09-30T13:25:58;11.20;;;6.50;;
70866;SDS011;58487;53.474;49.470;2023-09-30T13:28:24;12.27;;;3.60;;
70866;SDS011;58487;53.474;49.470;2023-09-30T13:30:53;7.00;;;3.10;;
70866;SDS011;58487;53.474;49.470;2023-09-30T13:33:19;8.93;;;3.22;;
70866;SDS011;58487;53.474;49.470;2023-09-30T13:35:48;6.05;;;3.08;;
70866;SDS011;58487;53.474;49.470;2023-09-30T13:38:14;6.40;;;3.30;;
70866;SDS011;58487;53.474;49.470;2023-09-30T13:40:41;6.72;;;3.03;;
70866;SDS011;58487;53.474;49.470;2023-09-30T13:43:08;7.40;;;3.28;;
70866;SDS011;58487;53.474;49.470;2023-09-30T13:45:34;6.93;;;2.90;;
70866;SDS011;58487;53.474;49.470;2023-09-30T13:48:01;6.60;;;2.70;;
70866;SDS011;58487;53.474;49.470;2023-09-30T13:50:27;7.77;;;3.20;;
70866;SDS011;58487;53.474;49.470;2023-09-30T13:52:53;8.57;;;3.50;;
70866;SDS011;58487;53.474;49.470;2023-09-30T13:55:19;9.57;;;2.90;;
70866;SDS011;58487;53.474;49.470;2023-09-30T13:57:46;12.48;;;3.08;;
70866;SDS011;58487;53.474;49.470;2023-09-30T14:00:12;6.32;;;2.85;;
70866;SDS011;58487;53.474;49.470;2023-09-30T14:02:39;6.10;;;2.90;;
70866;SDS011;58487;53.474;49.470;2023-09-30T14:05:05;6.90;;;2.78;;
70866;SDS011;58487;53.474;49.470;2023-09-30T14:07:35;6.40;;;2.95;;
70866;SDS011;58487;53.474;49.470;2023-09-30T14:10:05;22.20;;;3.83;;
70866;SDS011;58487;53.474;49.470;2023-09-30T14:12:32;7.82;;;3.33;;
70866;SDS011;58487;53.474;49.470;2023-09-30T14:14:58;6.70;;;2.60;;
70866;SDS011;58487;53.474;49.470;2023-09-30T14:17:27;6.90;;;2.95;;
70866;SDS011;58487;53.474;49.470;2023-09-30T14:19:53;8.93;;;3.33;;
70866;SDS011;58487;53.474;49.470;2023-09-30T14:22:19;7.93;;;3.10;;
70866;SDS011;58487;53.474;49.470;2023-09-30T14:24:45;7.47;;;3.33;;
70866;SDS011;58487;53.474;49.470;2023-09-30T14:27:11;11.43;;;4.07;;
70866;SDS011;58487;53.474;49.470;2023-09-30T14:29:39;8.00;;;4.28;;
70866;SDS011;58487;53.474;49.470;2023-09-30T14:32:08;8.10;;;4.18;;
70866;SDS011;58487;53.474;49.470;2023-09-30T14:34:34;8.57;;;3.80;;
70866;SDS011;58487;53.474;49.470;2023-09-30T14:37:00;8.10;;;4.13;;
70866;SDS011;58487;53.474;49.470;2023-09-30T14:39:26;11.77;;;4.33;;
70866;SDS011;58487;53.474;49.470;2023-09-30T14:41:52;11.13;;;4.72;;
70866;SDS011;58487;53.474;49.470;2023-09-30T14:44:18;11.50;;;4.63;;
70866;SDS011;58487;53.474;49.470;2023-09-30T14:46:47;12.43;;;5.03;;
70866;SDS011;58487;53.474;49.470;2023-09-30T14:49:13;11.15;;;5.30;;
70866;SDS011;58487;53.474;49.470;2023-09-30T14:51:40;14.07;;;5.27;;
70866;SDS011;58487;53.474;49.470;2023-09-30T14:54:06;10.25;;;5.18;;
70866;SDS011;58487;53.474;49.470;2023-09-30T14:56:32;11.07;;;5.60;;
70866;SDS011;58487;53.474;49.470;2023-09-30T14:58:58;15.90;;;7.90;;
70866;SDS011;58487;53.474;49.470;2023-09-30T15:01:25;14.45;;;6.70;;
70866;SDS011;58487;53.474;49.470;2023-09-30T15:03:51;13.70;;;6.83;;